Time;durP1;ratioP1;P1;durP2;ratioP2;P2;SDS_P1;SDS_P2;PMS_P1;PMS_P2;Temp;Humidity;BMP_temperature;BMP_pressure;BME280_temperature;BME280_humidity;BME280_pressure;Samples;Min_cycle;Max_cycle;Signal;HPM_P1;HPM_P2
2022/09/21 00:00:20;;;;;;;0.05;0.05;;;;;;;;;;10402345;28;20178;-76
2022/09/21 00:05:21;;;;;;;0.05;0.05;;;;;;;;;;10384997;28;20203;-76
2022/09/21 00:10:22;;;;;;;0.00;0.00;;;;;;;;;;10399066;28;20211;-76
2022/09/21 00:15:23;;;;;;;0.00;0.00;;;;;;;;;;10400374;28;20182;-76
2022/09/21 00:20:25;;;;;;;0.00;0.00;;;;;;;;;;10383179;28;20191;-76
2022/09/21 00:25:26;;;;;;;0.22;0.08;;;;;;;;;;10392164;28;20246;-76
2022/09/21 00:30:27;;;;;;;0.10;0.10;;;;;;;;;;10376504;28;20266;-76
2022/09/21 00:35:28;;;;;;;0.00;0.00;;;;;;;;;;10389530;28;20224;-76
2022/09/21 00:40:30;;;;;;;0.00;0.00;;;;;;;;;;10390339;28;20215;-76
2022/09/21 00:45:31;;;;;;;0.20;0.17;;;;;;;;;;10390948;28;20227;-76
2022/09/21 00:50:33;;;;;;;0.10;0.10;;;;;;;;;;10389286;28;20229;-76
2022/09/21 00:55:36;;;;;;;0.10;0.10;;;;;;;;;;10373758;28;20696;-76
2022/09/21 01:00:39;;;;;;;0.00;0.00;;;;;;;;;;10395993;28;20927;-76
2022/09/21 01:05:40;;;;;;;0.00;0.00;;;;;;;;;;10382879;28;20215;-76
2022/09/21 01:11:00;;;;;;;0.00;0.00;;;;;;;;;;10379791;28;20309;-76
2022/09/21 01:16:13;;;;;;;0.00;0.00;;;;;;;;;;10393202;28;20226;-76
2022/09/21 01:21:37;;;;;;;0.10;0.10;;;;;;;;;;10393818;28;20204;-76
2022/09/21 01:26:41;;;;;;;0.10;0.10;;;;;;;;;;10380302;28;20222;-76
2022/09/21 01:31:45;;;;;;;0.10;0.10;;;;;;;;;;10366407;28;20238;-76
2022/09/21 01:36:46;;;;;;;0.10;0.10;;;;;;;;;;10385214;28;20249;-76
2022/09/21 01:41:50;;;;;;;0.00;0.00;;;;;;;;;;10395914;28;20247;-76
2022/09/21 01:46:52;;;;;;;0.00;0.00;;;;;;;;;;10393633;28;20242;-76
2022/09/21 01:51:57;;;;;;;0.00;0.00;;;;;;;;;;10388551;28;20246;-75
2022/09/21 01:57:16;;;;;;;0.10;0.10;;;;;;;;;;10400688;28;20214;-76
2022/09/21 02:02:41;;;;;;;0.00;0.00;;;;;;;;;;10402652;28;20302;-77
2022/09/21 02:07:42;;;;;;;0.30;0.30;;;;;;;;;;10397676;28;20219;-76
2022/09/21 02:12:44;;;;;;;0.00;0.00;;;;;;;;;;10402222;28;20222;-75
2022/09/21 02:17:57;;;;;;;0.00;0.00;;;;;;;;;;10397675;28;20220;-75
2022/09/21 02:23:07;;;;;;;1.35;0.20;;;;;;;;;;10396920;28;20733;-76
2022/09/21 02:28:13;;;;;;;0.00;0.00;;;;;;;;;;10384402;28;20212;-76
2022/09/21 02:33:16;;;;;;;0.10;0.10;;;;;;;;;;10394793;28;20215;-76
2022/09/21 02:38:36;;;;;;;0.00;0.00;;;;;;;;;;10385513;28;20222;-76
2022/09/21 02:43:41;;;;;;;0.10;0.10;;;;;;;;;;10388706;28;20249;-76
2022/09/21 02:48:47;;;;;;;0.10;0.10;;;;;;;;;;10383027;28;20216;-76
2022/09/21 02:53:50;;;;;;;0.08;0.08;;;;;;;;;;10381983;28;20215;-75
2022/09/21 02:58:53;;;;;;;0.00;0.00;;;;;;;;;;10392517;28;20218;-77
2022/09/21 03:03:54;;;;;;;0.00;0.00;;;;;;;;;;10404070;28;20215;-76
2022/09/21 03:08:56;;;;;;;0.10;0.10;;;;;;;;;;10394428;28;20583;-76
2022/09/21 03:13:58;;;;;;;0.10;0.10;;;;;;;;;;10397954;28;20871;-76
2022/09/21 03:18:59;;;;;;;0.03;0.03;;;;;;;;;;10397812;28;20242;-76
2022/09/21 03:24:00;;;;;;;0.43;0.38;;;;;;;;;;10380289;28;20223;-76
2022/09/21 03:29:02;;;;;;;0.00;0.00;;;;;;;;;;10394918;28;20207;-76
2022/09/21 03:34:03;;;;;;;0.00;0.00;;;;;;;;;;10394845;28;20252;-75
2022/09/21 03:39:05;;;;;;;0.00;0.00;;;;;;;;;;10402991;28;20246;-75
2022/09/21 03:44:06;;;;;;;0.00;0.00;;;;;;;;;;10394255;28;20744;-75
2022/09/21 03:49:07;;;;;;;0.10;0.10;;;;;;;;;;10396412;28;20215;-76
2022/09/21 03:54:09;;;;;;;0.10;0.10;;;;;;;;;;10394339;28;20226;-76
2022/09/21 03:59:10;;;;;;;0.08;0.08;;;;;;;;;;10398519;28;20219;-78
2022/09/21 04:04:11;;;;;;;0.20;0.17;;;;;;;;;;10385583;28;20771;-74
2022/09/21 04:09:12;;;;;;;0.00;0.00;;;;;;;;;;10398164;28;20317;-76
2022/09/21 04:14:13;;;;;;;0.08;0.08;;;;;;;;;;10396779;28;20222;-77
2022/09/21 04:19:15;;;;;;;0.08;0.08;;;;;;;;;;10368098;28;20219;-75
2022/09/21 04:24:18;;;;;;;0.00;0.00;;;;;;;;;;10394354;28;20743;-77
2022/09/21 04:29:19;;;;;;;0.38;0.20;;;;;;;;;;10358061;28;20220;-76
2022/09/21 04:34:20;;;;;;;0.00;0.00;;;;;;;;;;10385590;28;20224;-77
2022/09/21 04:39:22;;;;;;;0.10;0.10;;;;;;;;;;10366676;28;20910;-77
2022/09/21 04:44:23;;;;;;;0.05;0.05;;;;;;;;;;10385790;28;20223;-78
2022/09/21 04:49:24;;;;;;;0.10;0.10;;;;;;;;;;10394249;28;20225;-77
2022/09/21 04:54:25;;;;;;;0.28;0.28;;;;;;;;;;10392959;28;20223;-78
2022/09/21 04:59:27;;;;;;;0.10;0.10;;;;;;;;;;10393072;28;20215;-77
2022/09/21 05:04:28;;;;;;;0.00;0.00;;;;;;;;;;10358912;28;20223;-77
2022/09/21 05:14:49;;;;;;;0.90;0.22;;;;;;;;;;10396974;28;20664;-76
2022/09/21 05:19:52;;;;;;;0.20;0.20;;;;;;;;;;10398019;28;20219;-77
2022/09/21 05:24:53;;;;;;;0.17;0.17;;;;;;;;;;10396242;28;20816;-77
2022/09/21 05:29:54;;;;;;;0.10;0.10;;;;;;;;;;10389865;28;20288;-79
2022/09/21 05:35:07;;;;;;;0.13;0.13;;;;;;;;;;10393561;28;20215;-78
2022/09/21 05:40:10;;;;;;;0.10;0.10;;;;;;;;;;10354478;28;20207;-77
2022/09/21 05:45:17;;;;;;;0.47;0.47;;;;;;;;;;10399488;28;20207;-78
2022/09/21 05:50:29;;;;;;;0.55;0.55;;;;;;;;;;10389987;28;20232;-78
2022/09/21 05:55:55;;;;;;;0.20;0.20;;;;;;;;;;10414667;28;20266;-78
2022/09/21 06:01:14;;;;;;;0.70;0.40;;;;;;;;;;10411842;28;20202;-78
2022/09/21 06:06:16;;;;;;;0.75;0.70;;;;;;;;;;10410625;28;20225;-78
2022/09/21 06:11:18;;;;;;;0.38;0.38;;;;;;;;;;10409538;28;20303;-78
2022/09/21 06:16:19;;;;;;;0.30;0.30;;;;;;;;;;10411570;28;20219;-75
2022/09/21 06:21:20;;;;;;;0.80;0.80;;;;;;;;;;10404189;28;20229;-76
2022/09/21 06:26:21;;;;;;;0.10;0.10;;;;;;;;;;10399018;28;20227;-75
2022/09/21 06:31:22;;;;;;;0.17;0.17;;;;;;;;;;10404655;28;20212;-75
2022/09/21 06:36:23;;;;;;;0.22;0.22;;;;;;;;;;10401958;28;20219;-76
2022/09/21 06:41:24;;;;;;;0.10;0.10;;;;;;;;;;10403256;28;20738;-76
2022/09/21 06:46:25;;;;;;;0.43;0.32;;;;;;;;;;10395752;28;20691;-76
2022/09/21 06:51:26;;;;;;;0.00;0.00;;;;;;;;;;10401916;28;20226;-77
2022/09/21 06:56:27;;;;;;;0.28;0.28;;;;;;;;;;10401947;28;20219;-77
2022/09/21 07:01:28;;;;;;;0.20;0.20;;;;;;;;;;10403328;28;20223;-76
2022/09/21 07:06:29;;;;;;;0.73;0.73;;;;;;;;;;10403563;28;20218;-75
2022/09/21 07:11:30;;;;;;;0.20;0.20;;;;;;;;;;10399953;28;20504;-77
2022/09/21 07:16:32;;;;;;;0.20;0.20;;;;;;;;;;10403164;28;20719;-75
2022/09/21 07:21:33;;;;;;;0.10;0.10;;;;;;;;;;10400492;28;20683;-75
2022/09/21 07:26:36;;;;;;;2.92;0.20;;;;;;;;;;10377298;28;20207;-76
2022/09/21 07:31:37;;;;;;;0.10;0.10;;;;;;;;;;10403570;28;21275;-78
2022/09/21 07:36:38;;;;;;;0.05;0.05;;;;;;;;;;10404681;28;20386;-77
2022/09/21 07:41:39;;;;;;;0.20;0.20;;;;;;;;;;10394939;28;20472;-78
2022/09/21 07:46:40;;;;;;;0.20;0.20;;;;;;;;;;10404860;28;20219;-78
2022/09/21 07:51:41;;;;;;;0.00;0.00;;;;;;;;;;10399578;28;20223;-78
2022/09/21 07:59:04;;;;;;;2.72;0.15;;;;;;;;;;10402764;28;20215;-78
2022/09/21 08:02:04;;;;;;;0.05;0.05;;;;;;;;;;10393550;28;20389;-78
2022/09/21 08:07:05;;;;;;;0.50;0.50;;;;;;;;;;10416585;28;20216;-76
2022/09/21 08:12:06;;;;;;;0.00;0.00;;;;;;;;;;10405656;28;20586;-79
2022/09/21 08:17:07;;;;;;;0.00;0.00;;;;;;;;;;10404454;28;20211;-78
2022/09/21 08:22:11;;;;;;;0.10;0.10;;;;;;;;;;10408902;28;20495;-78
2022/09/21 08:27:12;;;;;;;0.00;0.00;;;;;;;;;;10407511;28;20215;-79
2022/09/21 08:32:13;;;;;;;0.30;0.30;;;;;;;;;;10393131;28;20778;-78
2022/09/21 08:37:14;;;;;;;0.65;0.17;;;;;;;;;;10377982;28;20219;-78
2022/09/21 08:42:34;;;;;;;0.05;0.05;;;;;;;;;;10406913;28;20672;-79
2022/09/21 08:47:44;;;;;;;3.00;0.75;;;;;;;;;;10399027;28;20216;-78
2022/09/21 08:52:45;;;;;;;0.22;0.22;;;;;;;;;;10405989;28;20289;-77
2022/09/21 08:57:46;;;;;;;0.00;0.00;;;;;;;;;;10403775;28;20219;-78
2022/09/21 09:02:56;;;;;;;0.10;0.08;;;;;;;;;;10401810;28;20624;-77
2022/09/21 09:08:18;;;;;;;0.00;0.00;;;;;;;;;;10404142;28;20591;-79
2022/09/21 09:13:19;;;;;;;0.10;0.10;;;;;;;;;;10404476;28;20282;-78
2022/09/21 09:18:29;;;;;;;0.30;0.30;;;;;;;;;;10376810;28;20404;-78
2022/09/21 09:23:36;;;;;;;1.13;0.65;;;;;;;;;;10406319;28;20282;-78
2022/09/21 09:28:41;;;;;;;0.10;0.10;;;;;;;;;;10376622;28;20212;-77
2022/09/21 09:33:45;;;;;;;0.57;0.57;;;;;;;;;;10372415;28;20701;-77
2022/09/21 09:38:57;;;;;;;0.40;0.40;;;;;;;;;;10401321;28;20276;-77
2022/09/21 09:44:15;;;;;;;0.40;0.40;;;;;;;;;;10401332;28;20703;-77
2022/09/21 09:49:28;;;;;;;5.45;1.25;;;;;;;;;;10401118;28;20222;-77
2022/09/21 09:54:32;;;;;;;0.00;0.00;;;;;;;;;;10400585;28;20741;-77
2022/09/21 09:59:44;;;;;;;0.38;0.05;;;;;;;;;;10396085;28;20296;-75
2022/09/21 10:05:05;;;;;;;0.20;0.20;;;;;;;;;;10382813;28;20259;-76
2022/09/21 10:10:21;;;;;;;0.10;0.10;;;;;;;;;;10409335;28;20281;-77
2022/09/21 10:15:23;;;;;;;0.10;0.10;;;;;;;;;;10402972;28;20337;-78
2022/09/21 10:20:25;;;;;;;0.10;0.10;;;;;;;;;;10388269;28;20180;-76
2022/09/21 10:25:26;;;;;;;0.03;0.03;;;;;;;;;;10416467;28;20314;-77
2022/09/21 10:30:30;;;;;;;0.00;0.00;;;;;;;;;;10405539;28;20217;-77
2022/09/21 10:35:31;;;;;;;0.00;0.00;;;;;;;;;;10406579;28;20215;-78
2022/09/21 10:40:35;;;;;;;0.00;0.00;;;;;;;;;;10390832;28;20280;-77
2022/09/21 10:45:36;;;;;;;0.00;0.00;;;;;;;;;;10408862;28;20222;-78
2022/09/21 10:50:41;;;;;;;0.35;0.17;;;;;;;;;;10410676;28;20271;-77
2022/09/21 10:56:00;;;;;;;0.00;0.00;;;;;;;;;;10410474;28;20219;-77
2022/09/21 11:01:31;;;;;;;0.00;0.00;;;;;;;;;;10379511;28;20271;-78
2022/09/21 11:06:41;;;;;;;0.00;0.00;;;;;;;;;;10387089;28;20228;-77
2022/09/21 11:12:01;;;;;;;0.00;0.00;;;;;;;;;;10339116;28;20225;-76
2022/09/21 11:17:12;;;;;;;0.00;0.00;;;;;;;;;;10340836;28;20232;-76
2022/09/21 11:22:21;;;;;;;0.00;0.00;;;;;;;;;;10339187;28;20778;-77
2022/09/21 11:27:23;;;;;;;0.00;0.00;;;;;;;;;;10338446;28;20223;-78
2022/09/21 11:32:36;;;;;;;0.40;0.40;;;;;;;;;;10331789;28;20223;-78
2022/09/21 11:37:52;;;;;;;0.00;0.00;;;;;;;;;;10321273;28;20232;-78
2022/09/21 11:43:11;;;;;;;0.10;0.10;;;;;;;;;;10317893;28;20282;-77
2022/09/21 11:48:27;;;;;;;0.00;0.00;;;;;;;;;;10342626;28;20728;-78
2022/09/21 11:53:40;;;;;;;3.72;0.55;;;;;;;;;;10335797;28;20219;-77
2022/09/21 11:59:02;;;;;;;0.00;0.00;;;;;;;;;;10331032;28;20232;-78
2022/09/21 12:04:09;;;;;;;0.00;0.00;;;;;;;;;;10336418;28;20414;-77
2022/09/21 12:09:29;;;;;;;0.00;0.00;;;;;;;;;;10334770;28;20398;-77
2022/09/21 12:14:36;;;;;;;0.00;0.00;;;;;;;;;;10377944;28;20218;-77
2022/09/21 12:19:45;;;;;;;0.00;0.00;;;;;;;;;;10392585;28;20223;-77
2022/09/21 12:24:49;;;;;;;0.00;0.00;;;;;;;;;;10406080;28;20234;-78
2022/09/21 12:29:53;;;;;;;0.10;0.10;;;;;;;;;;10408532;28;20581;-77
2022/09/21 12:34:56;;;;;;;0.00;0.00;;;;;;;;;;10407873;28;20512;-78
2022/09/21 12:40:02;;;;;;;0.03;0.03;;;;;;;;;;10431983;28;21119;-78
2022/09/21 12:45:16;;;;;;;0.00;0.00;;;;;;;;;;10405272;28;20427;-76
2022/09/21 12:50:38;;;;;;;0.20;0.20;;;;;;;;;;10407901;28;20260;-77
2022/09/21 12:55:43;;;;;;;0.00;0.00;;;;;;;;;;10404584;28;20211;-78
2022/09/21 13:00:51;;;;;;;0.00;0.00;;;;;;;;;;10398361;28;20220;-76
2022/09/21 13:06:15;;;;;;;0.00;0.00;;;;;;;;;;10389169;28;20314;-77
2022/09/21 13:11:20;;;;;;;0.00;0.00;;;;;;;;;;10406411;28;20230;-78
2022/09/21 13:16:24;;;;;;;0.00;0.00;;;;;;;;;;10403243;28;20215;-79
2022/09/21 13:21:28;;;;;;;0.00;0.00;;;;;;;;;;10377037;28;20207;-79
2022/09/21 13:26:35;;;;;;;0.00;0.00;;;;;;;;;;10406850;28;20219;-79
2022/09/21 13:31:41;;;;;;;0.00;0.00;;;;;;;;;;10384873;28;20286;-80
2022/09/21 13:36:42;;;;;;;0.00;0.00;;;;;;;;;;10414859;28;20241;-79
2022/09/21 13:41:43;;;;;;;0.00;0.00;;;;;;;;;;10417281;28;20310;-79
2022/09/21 13:46:47;;;;;;;0.00;0.00;;;;;;;;;;10414641;28;20231;-78
2022/09/21 13:51:52;;;;;;;0.00;0.00;;;;;;;;;;10413542;28;20223;-78
2022/09/21 13:56:58;;;;;;;0.00;0.00;;;;;;;;;;10413704;28;20254;-78
2022/09/21 14:01:59;;;;;;;0.00;0.00;;;;;;;;;;10369082;28;20211;-79
2022/09/21 14:07:03;;;;;;;0.00;0.00;;;;;;;;;;10413463;28;20215;-78
2022/09/21 14:12:06;;;;;;;0.35;0.00;;;;;;;;;;10412580;28;20224;-78
2022/09/21 14:17:26;;;;;;;0.00;0.00;;;;;;;;;;10399798;28;20697;-78
2022/09/21 14:22:28;;;;;;;0.00;0.00;;;;;;;;;;10413584;28;20862;-79
2022/09/21 14:27:40;;;;;;;0.00;0.00;;;;;;;;;;10396099;28;20397;-79
2022/09/21 14:32:43;;;;;;;0.00;0.00;;;;;;;;;;10384396;28;20604;-78
2022/09/21 14:37:55;;;;;;;0.30;0.30;;;;;;;;;;10411526;28;20219;-79
2022/09/21 14:42:57;;;;;;;0.00;0.00;;;;;;;;;;10410616;28;20511;-79
2022/09/21 14:48:01;;;;;;;0.00;0.00;;;;;;;;;;10408141;28;20210;-78
2022/09/21 14:53:25;;;;;;;0.00;0.00;;;;;;;;;;10388993;28;20204;-78
2022/09/21 14:58:45;;;;;;;0.00;0.00;;;;;;;;;;10413519;28;20225;-79
2022/09/21 15:03:56;;;;;;;0.10;0.10;;;;;;;;;;10394145;28;20715;-78
2022/09/21 15:14:45;;;;;;;0.00;0.00;;;;;;;;;;10399031;28;20318;-79
2022/09/21 15:19:48;;;;;;;0.57;0.57;;;;;;;;;;10398438;28;20215;-78
2022/09/21 15:24:57;;;;;;;0.00;0.00;;;;;;;;;;10392251;28;20212;-78
2022/09/21 15:30:00;;;;;;;0.00;0.00;;;;;;;;;;10395379;28;20270;-78
2022/09/21 15:35:02;;;;;;;0.00;0.00;;;;;;;;;;10389103;28;21712;-78
2022/09/21 15:40:07;;;;;;;0.00;0.00;;;;;;;;;;10395285;28;20215;-78
2022/09/21 15:45:16;;;;;;;0.00;0.00;;;;;;;;;;10402450;28;20276;-78
2022/09/21 15:50:19;;;;;;;0.43;0.15;;;;;;;;;;10358170;28;20175;-78
2022/09/21 15:55:21;;;;;;;0.00;0.00;;;;;;;;;;10378970;28;20183;-77
2022/09/21 16:00:24;;;;;;;0.00;0.00;;;;;;;;;;10394181;28;20676;-78
2022/09/21 16:05:25;;;;;;;0.00;0.00;;;;;;;;;;10394679;28;20298;-79
2022/09/21 16:10:29;;;;;;;0.00;0.00;;;;;;;;;;10376990;28;20285;-78
2022/09/21 16:15:31;;;;;;;0.00;0.00;;;;;;;;;;10391930;28;20223;-76
2022/09/21 16:20:42;;;;;;;0.10;0.10;;;;;;;;;;10377318;28;20281;-75
2022/09/21 16:25:44;;;;;;;0.00;0.00;;;;;;;;;;10384581;28;20238;-78
2022/09/21 16:30:47;;;;;;;0.00;0.00;;;;;;;;;;10367389;28;20455;-76
2022/09/21 16:35:48;;;;;;;0.00;0.00;;;;;;;;;;10369604;28;20218;-77
2022/09/21 16:40:52;;;;;;;0.98;0.52;;;;;;;;;;10378050;28;20906;-78
2022/09/21 16:45:54;;;;;;;0.00;0.00;;;;;;;;;;10364127;28;20970;-78
2022/09/21 16:50:55;;;;;;;0.00;0.00;;;;;;;;;;10393491;28;20234;-76
2022/09/21 16:55:57;;;;;;;0.00;0.00;;;;;;;;;;10370806;28;20955;-77
2022/09/21 17:00:58;;;;;;;0.00;0.00;;;;;;;;;;10393592;28;20219;-76
2022/09/21 17:05:59;;;;;;;0.00;0.00;;;;;;;;;;10377283;28;20277;-78
2022/09/21 17:11:03;;;;;;;0.00;0.00;;;;;;;;;;10373091;28;20305;-77
2022/09/21 17:16:04;;;;;;;0.00;0.00;;;;;;;;;;10406296;28;21225;-76
2022/09/21 17:21:07;;;;;;;0.05;0.03;;;;;;;;;;10395186;28;20281;-77
2022/09/21 17:26:16;;;;;;;0.03;0.03;;;;;;;;;;10383092;28;20694;-77
2022/09/21 17:31:17;;;;;;;0.00;0.00;;;;;;;;;;10365982;28;20692;-77
2022/09/21 17:36:18;;;;;;;0.00;0.00;;;;;;;;;;10384455;28;20699;-76
2022/09/21 17:41:36;;;;;;;0.00;0.00;;;;;;;;;;10384226;28;20467;-78
2022/09/21 17:47:00;;;;;;;0.00;0.00;;;;;;;;;;10382606;28;20218;-77
2022/09/21 17:57:40;;;;;;;0.30;0.30;;;;;;;;;;10394868;28;20404;-77
2022/09/21 18:02:41;;;;;;;0.10;0.10;;;;;;;;;;10363630;28;20310;-77
2022/09/21 18:07:42;;;;;;;0.00;0.00;;;;;;;;;;10376407;28;20227;-78
2022/09/21 18:13:02;;;;;;;0.20;0.20;;;;;;;;;;10382987;28;20238;-79
2022/09/21 18:18:17;;;;;;;8.75;0.40;;;;;;;;;;10381968;28;20227;-77
2022/09/21 18:23:22;;;;;;;0.10;0.10;;;;;;;;;;10383202;28;20259;-76
2022/09/21 18:28:34;;;;;;;0.88;0.20;;;;;;;;;;10396339;28;20281;-77
2022/09/21 18:33:55;;;;;;;0.00;0.00;;;;;;;;;;10366100;28;20216;-77
2022/09/21 18:39:09;;;;;;;0.00;0.00;;;;;;;;;;10393767;28;21042;-78
2022/09/21 18:44:31;;;;;;;0.03;0.03;;;;;;;;;;10390245;28;20215;-76
2022/09/21 18:49:48;;;;;;;0.00;0.00;;;;;;;;;;10389154;28;20249;-77
2022/09/21 18:54:49;;;;;;;0.20;0.20;;;;;;;;;;10396226;28;20285;-77
2022/09/21 18:59:50;;;;;;;0.00;0.00;;;;;;;;;;10390599;28;20778;-77
2022/09/21 19:04:51;;;;;;;0.15;0.15;;;;;;;;;;10391341;28;20714;-77
2022/09/21 19:09:55;;;;;;;0.10;0.10;;;;;;;;;;10393078;28;20319;-77
2022/09/21 19:15:02;;;;;;;0.28;0.15;;;;;;;;;;10369680;28;20696;-77
2022/09/21 19:20:26;;;;;;;0.10;0.10;;;;;;;;;;10372624;28;20313;-76
2022/09/21 19:25:34;;;;;;;0.40;0.22;;;;;;;;;;10376469;28;20336;-77
2022/09/21 19:30:36;;;;;;;0.15;0.15;;;;;;;;;;10384781;28;20216;-77
2022/09/21 19:35:37;;;;;;;0.10;0.10;;;;;;;;;;10386224;28;20227;-76
2022/09/21 19:40:39;;;;;;;0.20;0.20;;;;;;;;;;10393924;28;20721;-75
2022/09/21 19:46:03;;;;;;;0.20;0.20;;;;;;;;;;10372783;28;20226;-76
2022/09/21 19:51:05;;;;;;;0.35;0.35;;;;;;;;;;10382281;28;20242;-76
2022/09/21 20:01:32;;;;;;;0.55;0.47;;;;;;;;;;10391506;28;20218;-76
2022/09/21 20:06:37;;;;;;;0.17;0.17;;;;;;;;;;10397512;28;20227;-75
2022/09/21 20:11:46;;;;;;;0.15;0.15;;;;;;;;;;10400843;28;20223;-76
2022/09/21 20:16:47;;;;;;;0.17;0.17;;;;;;;;;;10395396;28;20674;-76
2022/09/21 20:21:52;;;;;;;0.10;0.10;;;;;;;;;;10392953;28;20825;-75
2022/09/21 20:26:53;;;;;;;0.10;0.10;;;;;;;;;;10390506;28;20227;-75
2022/09/21 20:31:55;;;;;;;0.10;0.10;;;;;;;;;;10381250;28;20857;-76
2022/09/21 20:36:56;;;;;;;0.10;0.10;;;;;;;;;;10398794;28;20240;-76
2022/09/21 20:41:58;;;;;;;0.10;0.10;;;;;;;;;;10390573;28;20594;-75
2022/09/21 20:46:59;;;;;;;0.10;0.10;;;;;;;;;;10395112;28;20222;-76
2022/09/21 20:52:00;;;;;;;0.00;0.00;;;;;;;;;;10393870;28;20732;-76
2022/09/21 20:57:01;;;;;;;0.10;0.10;;;;;;;;;;10391833;28;20227;-74
2022/09/21 21:02:03;;;;;;;0.00;0.00;;;;;;;;;;10394285;28;20222;-76
2022/09/21 21:07:04;;;;;;;0.38;0.38;;;;;;;;;;10396478;28;20262;-76
2022/09/21 21:12:05;;;;;;;0.10;0.10;;;;;;;;;;10390899;28;20214;-74
2022/09/21 21:17:06;;;;;;;0.20;0.20;;;;;;;;;;10364978;28;20230;-75
2022/09/21 21:22:08;;;;;;;0.10;0.10;;;;;;;;;;10371460;28;20216;-77
2022/09/21 21:27:15;;;;;;;0.10;0.10;;;;;;;;;;10368722;28;20298;-75
2022/09/21 21:32:17;;;;;;;0.10;0.10;;;;;;;;;;10400770;28;20239;-76
2022/09/21 21:37:19;;;;;;;1.10;0.10;;;;;;;;;;10370743;28;20215;-77
2022/09/21 21:42:20;;;;;;;0.10;0.10;;;;;;;;;;10389980;28;20230;-76
2022/09/21 21:47:21;;;;;;;0.03;0.03;;;;;;;;;;10397057;28;20325;-77
2022/09/21 21:52:22;;;;;;;0.35;0.35;;;;;;;;;;10379703;28;20234;-76
2022/09/21 21:57:23;;;;;;;0.10;0.10;;;;;;;;;;10397582;28;20329;-76
2022/09/21 22:02:25;;;;;;;0.25;0.25;;;;;;;;;;10396472;28;21052;-74
2022/09/21 22:07:26;;;;;;;0.40;0.40;;;;;;;;;;10407869;28;20932;-75
2022/09/21 22:12:27;;;;;;;0.90;0.30;;;;;;;;;;10403308;28;20222;-77
2022/09/21 22:17:28;;;;;;;0.10;0.10;;;;;;;;;;10388155;28;20220;-76
2022/09/21 22:22:29;;;;;;;0.20;0.20;;;;;;;;;;10402303;28;20701;-76
2022/09/21 22:27:31;;;;;;;0.10;0.10;;;;;;;;;;10404737;28;20266;-76
2022/09/21 22:32:32;;;;;;;0.17;0.17;;;;;;;;;;10398785;28;20219;-75
2022/09/21 22:37:33;;;;;;;0.10;0.10;;;;;;;;;;10399577;28;20321;-75
2022/09/21 22:42:35;;;;;;;0.10;0.10;;;;;;;;;;10404461;28;20604;-76
2022/09/21 22:47:37;;;;;;;0.10;0.10;;;;;;;;;;10406049;28;20243;-76
2022/09/21 22:52:38;;;;;;;0.00;0.00;;;;;;;;;;10376051;28;20983;-74
2022/09/21 22:57:39;;;;;;;0.40;0.10;;;;;;;;;;10403545;28;20226;-75
2022/09/21 23:02:41;;;;;;;0.00;0.00;;;;;;;;;;10400940;28;20218;-75
2022/09/21 23:07:42;;;;;;;0.10;0.10;;;;;;;;;;10395064;28;20270;-75
2022/09/21 23:12:43;;;;;;;0.10;0.10;;;;;;;;;;10374988;28;20229;-76
2022/09/21 23:17:44;;;;;;;0.08;0.08;;;;;;;;;;10371609;28;20227;-75
2022/09/21 23:22:45;;;;;;;0.28;0.28;;;;;;;;;;10397620;28;20215;-75
2022/09/21 23:27:46;;;;;;;1.75;0.93;;;;;;;;;;10395842;28;20278;-76
2022/09/21 23:32:47;;;;;;;0.20;0.20;;;;;;;;;;10402059;28;20770;-76
2022/09/21 23:37:48;;;;;;;0.00;0.00;;;;;;;;;;10366660;28;20355;-75
2022/09/21 23:42:49;;;;;;;0.00;0.00;;;;;;;;;;10405150;28;20222;-76
2022/09/21 23:47:50;;;;;;;0.30;0.30;;;;;;;;;;10397917;28;20215;-75
2022/09/21 23:52:51;;;;;;;0.20;0.20;;;;;;;;;;10397156;28;20215;-76
2022/09/21 23:57:52;;;;;;;0.17;0.17;;;;;;;;;;10400267;28;20211;-75
